createdAt,value
2018-09-11T01:12:28.700Z,16.64
2018-09-11T01:14:57.556Z,16.64
2018-09-11T01:17:28.370Z,16.66
2018-09-11T01:19:57.130Z,16.73
2018-09-11T01:22:26.421Z,16.74
2018-09-11T01:24:55.072Z,16.71
2018-09-11T01:27:23.760Z,16.76
2018-09-11T01:29:53.527Z,16.76
2018-09-11T01:32:22.289Z,16.77
2018-09-11T01:34:51.008Z,16.61
2018-09-11T01:37:19.804Z,16.53
2018-09-11T01:39:48.609Z,16.45
2018-09-11T01:42:17.380Z,16.50
2018-09-11T01:44:46.173Z,16.55
2018-09-11T01:47:14.867Z,16.75
2018-09-11T01:49:43.650Z,16.81
2018-09-11T01:52:12.367Z,16.96
2018-09-11T01:54:41.144Z,16.98
2018-09-11T01:57:09.945Z,16.88
2018-09-11T01:59:38.741Z,16.86
2018-09-11T02:02:07.536Z,16.92
2018-09-11T02:04:36.321Z,16.83
2018-09-11T02:07:05.267Z,16.77
2018-09-11T02:09:33.968Z,16.81
2018-09-11T02:12:03.670Z,16.87
2018-09-11T02:14:33.357Z,16.85
2018-09-11T02:17:02.136Z,16.92
2018-09-11T02:19:30.880Z,16.95
2018-09-11T02:21:59.806Z,16.96
2018-09-11T02:24:28.457Z,16.86
2018-09-11T02:26:57.133Z,16.91
2018-09-11T02:29:25.859Z,16.94
2018-09-11T02:31:54.597Z,16.87
2018-09-11T02:34:23.357Z,16.80
2018-09-11T02:36:52.046Z,16.78
2018-09-11T02:39:21.846Z,16.74
2018-09-11T02:41:50.569Z,16.76
2018-09-11T02:44:19.361Z,16.82
2018-09-11T02:46:48.139Z,16.91
2018-09-11T02:49:16.877Z,16.96
2018-09-11T02:51:45.702Z,16.99
2018-09-11T02:54:14.530Z,16.89
2018-09-11T02:56:43.345Z,16.86
2018-09-11T02:59:12.218Z,16.74
2018-09-11T03:01:41.935Z,16.65
2018-09-11T03:04:10.725Z,16.63
2018-09-11T03:06:39.526Z,16.70
2018-09-11T03:09:09.233Z,16.80
2018-09-11T03:11:41.787Z,16.70
2018-09-11T03:14:10.566Z,16.57
2018-09-11T03:16:39.393Z,16.53
2018-09-11T03:19:08.293Z,16.57
2018-09-11T03:21:37.069Z,16.60
2018-09-11T03:24:05.725Z,16.60
2018-09-11T03:26:34.451Z,16.58
2018-09-11T03:29:03.553Z,16.62
2018-09-11T03:31:33.259Z,16.63
2018-09-11T03:34:01.993Z,16.62
2018-09-11T03:36:30.761Z,16.63
2018-09-11T03:38:59.558Z,16.65
2018-09-11T03:41:28.495Z,16.66
2018-09-11T03:43:57.530Z,16.65
2018-09-11T03:46:27.459Z,16.64
2018-09-11T03:48:56.378Z,16.64
2018-09-11T03:51:25.142Z,16.70
2018-09-11T03:53:53.987Z,16.72
2018-09-11T03:56:22.656Z,16.73
2018-09-11T03:58:51.673Z,16.73
2018-09-11T04:01:20.741Z,16.70
2018-09-11T04:03:49.460Z,16.69
2018-09-11T04:06:18.193Z,16.66
2018-09-11T04:08:46.897Z,16.64
2018-09-11T04:11:15.689Z,16.60
2018-09-11T04:13:44.475Z,16.58
2018-09-11T04:16:13.202Z,16.56
2018-09-11T04:18:41.863Z,16.51
2018-09-11T04:21:10.596Z,16.47
2018-09-11T04:23:39.278Z,16.42
2018-09-11T04:26:09.131Z,16.35
2018-09-11T04:28:37.856Z,16.30
2018-09-11T04:31:06.927Z,16.25
2018-09-11T04:33:36.223Z,16.20
2018-09-11T04:36:04.895Z,16.18
2018-09-11T04:38:33.637Z,16.32
2018-09-11T04:41:02.373Z,16.34
2018-09-11T04:43:31.130Z,16.37
2018-09-11T04:45:59.910Z,16.49
2018-09-11T04:48:28.778Z,16.65
2018-09-11T04:50:57.664Z,16.75
2018-09-11T04:53:26.351Z,16.96
2018-09-11T04:55:55.698Z,17.03
2018-09-11T04:58:24.397Z,17.01
2018-09-11T05:00:53.205Z,16.92
2018-09-11T05:03:21.961Z,16.81
2018-09-11T05:05:50.610Z,16.70
2018-09-11T05:08:19.535Z,16.58
2018-09-11T05:10:48.193Z,16.46
2018-09-11T05:13:16.936Z,16.32
2018-09-11T05:15:45.828Z,16.20
2018-09-11T05:18:14.697Z,16.11
2018-09-11T05:20:43.422Z,16.08
2018-09-11T05:23:12.249Z,15.99
2018-09-11T05:25:40.917Z,15.93
2018-09-11T05:28:09.538Z,15.90
2018-09-11T05:30:38.260Z,15.84
2018-09-11T05:33:07.258Z,15.80
2018-09-11T05:35:35.961Z,15.79
2018-09-11T05:38:04.667Z,15.75
2018-09-11T05:40:33.339Z,15.74
2018-09-11T05:43:01.933Z,15.73
2018-09-11T05:45:30.622Z,15.73
2018-09-11T05:48:00.153Z,15.74
2018-09-11T05:50:29.542Z,15.74
2018-09-11T05:52:58.266Z,15.75
2018-09-11T05:55:26.962Z,15.75
2018-09-11T05:57:55.717Z,15.76
2018-09-11T06:00:24.492Z,15.77
2018-09-11T06:02:53.198Z,15.78
2018-09-11T06:05:22.656Z,15.76
2018-09-11T06:07:51.518Z,15.75
2018-09-11T06:10:21.398Z,15.74
2018-09-11T06:12:50.120Z,15.74
2018-09-11T06:15:18.937Z,15.74
2018-09-11T06:17:47.689Z,15.77
2018-09-11T06:20:16.365Z,15.80
2018-09-11T06:22:45.213Z,15.82
2018-09-11T06:25:14.092Z,15.86
2018-09-11T06:27:42.735Z,15.87
2018-09-11T06:30:11.373Z,15.92
2018-09-11T06:32:40.046Z,15.96
2018-09-11T06:35:08.751Z,16.02
2018-09-11T06:37:37.500Z,16.05
2018-09-11T06:40:06.805Z,16.10
2018-09-11T06:42:35.752Z,16.15
2018-09-11T06:45:04.731Z,16.15
2018-09-11T06:47:33.333Z,16.19
2018-09-11T06:50:02.139Z,16.23
2018-09-11T06:52:30.818Z,16.26
2018-09-11T06:54:59.641Z,16.30
2018-09-11T06:57:29.301Z,16.37
2018-09-11T06:59:58.059Z,16.43
2018-09-11T07:02:26.806Z,16.48
2018-09-11T07:04:55.728Z,16.53
2018-09-11T07:07:24.456Z,16.61
2018-09-11T07:09:53.189Z,16.66
2018-09-11T07:12:21.930Z,16.73
2018-09-11T07:14:50.641Z,16.81
2018-09-11T07:17:19.424Z,16.92
2018-09-11T07:19:48.162Z,17.02
2018-09-11T07:22:17.340Z,17.15
2018-09-11T07:29:59.356Z,17.54
2018-09-11T07:32:28.391Z,17.56
2018-09-11T07:34:56.980Z,17.65
2018-09-11T07:37:25.690Z,17.78
2018-09-11T07:39:54.474Z,17.89
2018-09-11T07:42:25.155Z,17.94
2018-09-11T07:44:53.818Z,17.97
2018-09-11T07:47:22.498Z,18.08
2018-09-11T07:49:51.193Z,18.21
2018-09-11T07:52:19.961Z,18.29
2018-09-11T07:54:48.905Z,18.32
2018-09-11T07:57:18.567Z,18.45
2018-09-11T07:59:47.894Z,18.66
2018-09-11T08:02:16.722Z,18.81
2018-09-11T08:04:45.349Z,18.97
2018-09-11T08:07:14.106Z,19.07
2018-09-11T08:09:42.847Z,19.09
2018-09-11T08:12:11.445Z,19.15
2018-09-11T08:14:41.180Z,19.21
2018-09-11T08:17:09.861Z,19.29
2018-09-11T08:19:38.559Z,19.35
2018-09-11T08:22:07.459Z,19.36
2018-09-11T08:24:36.150Z,19.46
2018-09-11T08:27:04.950Z,19.54
2018-09-11T08:29:33.598Z,19.61
2018-09-11T08:32:02.816Z,19.84
2018-09-11T08:34:32.261Z,19.89
2018-09-11T08:37:00.940Z,19.89
2018-09-11T08:39:29.837Z,19.95
2018-09-11T08:41:58.511Z,20.06
2018-09-11T08:44:27.952Z,20.08
2018-09-11T08:46:56.679Z,20.14
2018-09-11T08:49:25.421Z,20.25
2018-09-11T08:51:54.008Z,20.32
2018-09-11T08:54:23.409Z,20.37
2018-09-11T08:56:51.995Z,20.51
2018-09-11T08:59:20.637Z,20.64
2018-09-11T09:01:49.286Z,20.82
2018-09-11T09:04:17.998Z,21.02
2018-09-11T09:06:46.912Z,21.20
2018-09-11T09:09:15.649Z,21.31
2018-09-11T09:11:44.383Z,21.50
2018-09-11T09:14:15.120Z,21.65
2018-09-11T09:16:43.769Z,21.68
2018-09-11T09:19:12.437Z,21.78
2018-09-11T09:21:42.595Z,21.87
2018-09-11T09:24:11.489Z,22.03
2018-09-11T09:26:41.971Z,22.23
2018-09-11T09:29:10.695Z,22.50
2018-09-11T09:31:39.375Z,22.61
2018-09-11T09:34:08.022Z,22.75
2018-09-11T09:36:36.947Z,22.85
2018-09-11T09:39:07.225Z,23.00
2018-09-11T09:41:35.957Z,22.96
2018-09-11T09:44:04.776Z,22.94
2018-09-11T09:46:33.434Z,23.06
2018-09-11T09:49:02.218Z,23.00
2018-09-11T09:51:31.453Z,22.93
2018-09-11T09:54:00.268Z,23.13
2018-09-11T09:56:28.948Z,23.26
2018-09-11T09:58:58.425Z,23.27
2018-09-11T10:01:32.398Z,23.33
2018-09-11T10:04:01.154Z,23.42
2018-09-11T10:06:30.049Z,23.56
2018-09-11T10:08:58.725Z,23.50
2018-09-11T10:11:27.399Z,23.35
2018-09-11T10:13:56.274Z,23.41
2018-09-11T10:16:24.922Z,23.42
2018-09-11T10:18:53.614Z,23.51
2018-09-11T10:21:22.370Z,23.66
2018-09-11T10:23:52.153Z,24.00
2018-09-11T10:26:22.061Z,24.35
2018-09-11T10:28:50.949Z,24.64
2018-09-11T10:31:19.712Z,24.78
2018-09-11T10:33:48.478Z,24.94
2018-09-11T10:36:17.202Z,24.95
2018-09-11T10:38:45.803Z,24.67
2018-09-11T10:41:14.466Z,24.37
2018-09-11T10:43:43.096Z,24.16
2018-09-11T10:46:11.857Z,24.16
2018-09-11T10:48:40.610Z,24.24
2018-09-11T10:51:09.234Z,24.25
2018-09-11T10:53:40.025Z,24.41
2018-09-11T10:56:08.806Z,24.67
2018-09-11T10:58:38.510Z,24.88
2018-09-11T11:01:07.182Z,25.01
2018-09-11T11:03:35.951Z,25.03
2018-09-11T11:06:04.558Z,25.22
2018-09-11T11:08:33.250Z,25.75
2018-09-11T11:11:02.076Z,25.58
2018-09-11T11:13:30.969Z,25.32
2018-09-11T11:15:59.737Z,25.52
2018-09-11T11:18:28.648Z,25.52
2018-09-11T11:20:57.281Z,25.79
2018-09-11T11:23:26.024Z,25.99
2018-09-11T11:25:55.291Z,25.87
2018-09-11T11:28:24.089Z,25.97
2018-09-11T11:30:53.021Z,26.16
2018-09-11T11:33:21.921Z,26.16
2018-09-11T11:35:50.726Z,26.49
2018-09-11T11:38:19.546Z,26.88
2018-09-11T11:40:48.324Z,27.14
2018-09-11T11:43:17.122Z,27.26
2018-09-11T11:45:47.014Z,27.38
2018-09-11T11:48:15.983Z,27.62
2018-09-11T11:50:45.360Z,27.75
2018-09-11T11:53:14.138Z,27.56
2018-09-11T11:55:42.768Z,27.63
2018-09-11T11:58:11.586Z,27.96
2018-09-11T12:00:40.535Z,27.77
2018-09-11T12:03:09.455Z,27.42
2018-09-11T12:05:38.050Z,27.40
2018-09-11T12:08:06.809Z,27.57
2018-09-11T12:10:35.461Z,27.47
2018-09-11T12:13:04.207Z,27.55
2018-09-11T12:15:33.590Z,27.60
2018-09-11T12:18:03.322Z,27.92
2018-09-11T12:20:32.034Z,27.97
2018-09-11T12:23:00.621Z,28.19
2018-09-11T12:25:29.443Z,28.53
2018-09-11T12:27:58.126Z,28.57
2018-09-11T12:30:26.846Z,29.08
2018-09-11T12:32:55.566Z,29.01
2018-09-11T12:35:24.620Z,29.06
2018-09-11T12:37:53.382Z,29.34
2018-09-11T12:40:22.049Z,29.20
2018-09-11T12:42:50.795Z,28.96
2018-09-11T12:45:19.538Z,29.35
2018-09-11T12:47:49.198Z,29.66
2018-09-11T12:50:17.727Z,29.68
2018-09-11T12:52:46.478Z,29.63
2018-09-11T12:55:15.214Z,29.58
2018-09-11T12:57:43.943Z,29.42
2018-09-11T13:00:12.717Z,28.92
2018-09-11T13:02:41.325Z,29.19
2018-09-11T13:05:10.070Z,29.52
2018-09-11T13:07:40.802Z,29.94
2018-09-11T13:10:09.514Z,30.24
2018-09-11T13:12:38.320Z,30.66
2018-09-11T13:15:07.124Z,30.63
2018-09-11T13:17:35.689Z,31.01
2018-09-11T13:20:04.471Z,30.80
2018-09-11T13:22:33.165Z,30.46
2018-09-11T13:25:02.052Z,30.75
2018-09-11T13:27:30.702Z,30.77
2018-09-11T13:29:59.360Z,30.75
2018-09-11T13:32:28.341Z,30.88
2018-09-11T13:34:56.933Z,31.45
2018-09-11T13:37:26.612Z,31.24
2018-09-11T13:39:55.298Z,31.18
2018-09-11T13:42:24.018Z,31.15
2018-09-11T13:44:52.747Z,30.68
2018-09-11T13:47:21.857Z,30.70
2018-09-11T13:49:50.512Z,30.81
2018-09-11T13:52:19.101Z,30.74
2018-09-11T13:54:47.682Z,31.28
2018-09-11T13:57:16.424Z,31.66
2018-09-11T13:59:45.053Z,31.72
2018-09-11T14:02:14.327Z,31.32
2018-09-11T14:04:43.012Z,30.98
2018-09-11T14:07:11.753Z,31.40
2018-09-11T14:09:41.056Z,31.38
2018-09-11T14:12:09.899Z,30.95
2018-09-11T14:14:39.613Z,30.54
2018-09-11T14:17:08.292Z,30.79
2018-09-11T14:19:37.034Z,30.93
2018-09-11T14:22:06.712Z,30.92
2018-09-11T14:24:35.454Z,31.13
2018-09-11T14:27:04.121Z,31.38
2018-09-11T14:29:32.806Z,31.15
2018-09-11T14:32:02.669Z,30.95
2018-09-11T14:34:31.922Z,30.53
2018-09-11T14:37:00.853Z,29.25
2018-09-11T14:39:30.513Z,28.26
2018-09-11T14:41:59.200Z,27.87
2018-09-11T14:44:27.908Z,27.60
2018-09-11T14:46:56.762Z,27.52
2018-09-11T14:49:25.419Z,27.11
2018-09-11T14:51:54.140Z,26.77
2018-09-11T14:54:24.094Z,26.47
2018-09-11T14:56:53.199Z,26.46
2018-09-11T14:59:22.662Z,26.45
2018-09-11T15:01:51.377Z,26.41
2018-09-11T15:04:20.136Z,26.31
2018-09-11T15:06:48.789Z,26.22
2018-09-11T15:09:17.551Z,26.26
2018-09-11T15:11:46.197Z,26.27
2018-09-11T15:14:14.785Z,26.23
2018-09-11T15:16:43.399Z,26.17
2018-09-11T15:19:12.199Z,26.06
2018-09-11T15:21:40.982Z,26.02
2018-09-11T15:24:09.622Z,26.12
2018-09-11T15:26:38.377Z,26.38
2018-09-11T15:29:09.320Z,26.63
2018-09-11T15:31:38.106Z,26.87
2018-09-11T15:34:06.879Z,27.02
2018-09-11T15:36:35.660Z,27.31
2018-09-11T15:39:05.094Z,27.18
2018-09-11T15:41:33.979Z,26.98
2018-09-11T15:44:02.911Z,26.80
2018-09-11T15:46:31.708Z,26.69
2018-09-11T15:49:00.682Z,26.62
2018-09-11T15:51:29.464Z,26.86
2018-09-11T15:53:58.240Z,27.10
2018-09-11T15:56:26.958Z,27.49
2018-09-11T15:58:56.008Z,27.76
2018-09-11T16:01:24.640Z,28.08
2018-09-11T16:03:53.345Z,28.24
2018-09-11T16:06:22.019Z,28.35
2018-09-11T16:08:50.782Z,28.51
2018-09-11T16:11:19.457Z,28.49
2018-09-11T16:13:48.135Z,28.53
2018-09-11T16:16:17.594Z,28.53
2018-09-11T16:18:46.490Z,28.44
2018-09-11T16:21:15.736Z,28.32
2018-09-11T16:23:44.388Z,28.18
2018-09-11T16:26:13.344Z,28.00
2018-09-11T16:28:42.334Z,27.79
2018-09-11T16:31:11.301Z,27.50
2018-09-11T16:33:40.418Z,27.12
2018-09-11T16:36:09.050Z,26.86
2018-09-11T16:38:37.850Z,26.54
2018-09-11T16:41:06.855Z,26.23
2018-09-11T16:43:36.633Z,25.94
2018-09-11T16:46:05.363Z,25.66
2018-09-11T16:48:34.070Z,25.41
2018-09-11T16:51:03.954Z,25.21
2018-09-11T16:53:32.730Z,25.03
2018-09-11T16:56:01.548Z,24.92
2018-09-11T16:58:31.706Z,24.73
2018-09-11T17:01:00.711Z,24.51
2018-09-11T17:03:29.832Z,24.34
2018-09-11T17:05:59.438Z,24.17
2018-09-11T17:08:28.160Z,24.00
2018-09-11T17:10:56.939Z,23.83
2018-09-11T17:13:26.244Z,23.72
2018-09-11T17:15:54.914Z,23.57
2018-09-11T17:18:23.633Z,23.46
2018-09-11T17:20:53.338Z,23.34
2018-09-11T17:23:21.978Z,23.17
2018-09-11T17:25:50.723Z,23.01
2018-09-11T17:28:19.505Z,22.85
2018-09-11T17:30:48.179Z,22.71
2018-09-11T17:33:17.830Z,22.59
2018-09-11T17:35:46.634Z,22.48
2018-09-11T17:38:16.039Z,22.33
2018-09-11T17:40:44.910Z,22.20
2018-09-11T17:43:13.571Z,22.11
2018-09-11T17:45:42.423Z,22.02
2018-09-11T17:48:14.185Z,21.88
2018-09-11T17:50:42.873Z,21.83
2018-09-11T17:53:11.630Z,21.77
2018-09-11T17:55:40.425Z,21.70
2018-09-11T17:58:09.212Z,21.67
2018-09-11T18:00:37.856Z,21.65
2018-09-11T18:03:06.106Z,21.62
2018-09-11T18:05:34.936Z,21.62
2018-09-11T18:08:03.682Z,21.59
2018-09-11T18:10:32.362Z,21.56
2018-09-11T18:13:00.982Z,21.52
2018-09-11T18:15:29.819Z,21.49
2018-09-11T18:17:58.646Z,21.47
2018-09-11T18:20:28.375Z,21.44
2018-09-11T18:22:57.002Z,21.41
2018-09-11T18:25:25.823Z,21.37
2018-09-11T18:27:54.540Z,21.33
2018-09-11T18:30:23.351Z,21.32
2018-09-11T18:32:52.117Z,21.32
2018-09-11T18:35:20.913Z,21.24
2018-09-11T18:37:49.694Z,21.18
2018-09-11T18:40:18.609Z,21.11
2018-09-11T18:42:48.078Z,21.05
2018-09-11T18:45:16.797Z,21.00
2018-09-11T18:47:45.468Z,20.95
2018-09-11T18:50:14.784Z,20.91
2018-09-11T18:52:44.300Z,20.88
2018-09-11T18:55:13.075Z,20.87
2018-09-11T18:57:41.815Z,20.85
2018-09-11T19:00:10.585Z,20.82
2018-09-11T19:02:39.431Z,20.80
2018-09-11T19:05:08.418Z,20.76
2018-09-11T19:07:37.148Z,20.71
2018-09-11T19:10:05.865Z,20.66
2018-09-11T19:12:35.562Z,20.59
2018-09-11T19:15:04.322Z,20.52
2018-09-11T19:17:35.898Z,20.47
2018-09-11T19:20:06.697Z,20.37
2018-09-11T19:22:35.431Z,20.30
2018-09-11T19:25:05.584Z,20.21
2018-09-11T19:27:34.384Z,20.15
2018-09-11T19:30:02.984Z,20.06
2018-09-11T19:32:31.682Z,19.96
2018-09-11T19:35:00.545Z,19.91
2018-09-11T19:37:29.249Z,19.85
2018-09-11T19:39:58.314Z,19.80
2018-09-11T19:42:29.843Z,19.75
2018-09-11T19:44:58.683Z,19.74
2018-09-11T19:47:27.403Z,19.53
2018-09-11T19:49:56.368Z,19.42
2018-09-11T19:52:25.440Z,19.27
2018-09-11T19:54:54.002Z,19.06
2018-09-11T19:57:22.837Z,18.79
2018-09-11T19:59:51.566Z,18.64
2018-09-11T20:02:20.247Z,18.55
2018-09-11T20:04:49.318Z,18.43
2018-09-11T20:07:17.921Z,18.27
2018-09-11T20:09:46.524Z,18.17
2018-09-11T20:12:15.325Z,18.07
2018-09-11T20:14:44.063Z,17.97
2018-09-11T20:17:12.890Z,17.87
2018-09-11T20:19:41.894Z,17.82
2018-09-11T20:22:11.695Z,17.79
2018-09-11T20:24:40.301Z,17.83
2018-09-11T20:27:09.675Z,17.86
2018-09-11T20:29:38.677Z,17.81
2018-09-11T20:32:07.643Z,17.87
2018-09-11T20:34:36.435Z,17.82
2018-09-11T20:37:05.080Z,17.80
2018-09-11T20:39:33.862Z,17.87
2018-09-11T20:42:02.537Z,17.86
2018-09-11T20:44:31.242Z,17.78
2018-09-11T20:46:59.917Z,17.76
2018-09-11T20:49:28.586Z,17.77
2018-09-11T20:51:57.213Z,17.89
2018-09-11T20:54:25.882Z,17.97
2018-09-11T20:56:54.671Z,17.96
2018-09-11T20:59:23.289Z,18.01
2018-09-11T21:01:51.977Z,17.91
2018-09-11T21:04:20.643Z,17.87
2018-09-11T21:06:49.455Z,17.86
2018-09-11T21:09:18.557Z,17.82
2018-09-11T21:11:47.405Z,17.72
2018-09-11T21:14:16.031Z,17.65
2018-09-11T21:16:44.635Z,17.59
2018-09-11T21:19:13.541Z,17.49
2018-09-11T21:21:42.293Z,17.38
2018-09-11T21:24:10.886Z,17.42
2018-09-11T21:26:39.583Z,17.29
2018-09-11T21:29:08.268Z,17.09
2018-09-11T21:31:37.083Z,16.92
2018-09-11T21:34:05.798Z,16.89
2018-09-11T21:36:34.574Z,16.95
2018-09-11T21:39:03.501Z,16.83
2018-09-11T21:41:32.212Z,16.75
2018-09-11T21:44:00.929Z,16.63
2018-09-11T21:46:30.570Z,16.59
2018-09-11T21:48:59.310Z,16.59
2018-09-11T21:51:28.968Z,16.55
2018-09-11T21:53:57.637Z,16.45
2018-09-11T21:56:29.310Z,16.48
2018-09-11T21:58:58.220Z,16.48
2018-09-11T22:01:32.219Z,16.43
2018-09-11T22:04:00.801Z,16.44
2018-09-11T22:06:29.554Z,16.36
2018-09-11T22:08:58.186Z,16.39
2018-09-11T22:11:26.878Z,16.42
2018-09-11T22:13:55.658Z,16.32
2018-09-11T22:16:24.399Z,16.31
2018-09-11T22:18:53.089Z,16.21
2018-09-11T22:21:21.805Z,16.17
2018-09-11T22:23:50.421Z,16.01
2018-09-11T22:26:19.275Z,15.91
2018-09-11T22:28:48.071Z,15.84
2018-09-11T22:31:16.817Z,15.85
2018-09-11T22:33:45.717Z,15.79
2018-09-11T22:36:14.557Z,15.67
2018-09-11T22:38:44.001Z,15.56
2018-09-11T22:41:12.807Z,15.50
2018-09-11T22:43:41.601Z,15.48
2018-09-11T22:46:10.468Z,15.31
2018-09-11T22:48:40.202Z,15.24
2018-09-11T22:51:15.650Z,15.20
2018-09-11T22:53:45.486Z,15.16
2018-09-11T22:56:14.193Z,15.17
2018-09-11T22:58:42.933Z,15.22
2018-09-11T23:01:12.169Z,15.24
2018-09-11T23:03:41.559Z,15.17
2018-09-11T23:06:10.358Z,15.22
2018-09-11T23:08:39.138Z,15.26
2018-09-11T23:11:07.936Z,15.33
2018-09-11T23:13:36.757Z,15.30
2018-09-11T23:16:05.526Z,15.31
2018-09-11T23:18:34.359Z,15.40
2018-09-11T23:21:03.186Z,15.41
2018-09-11T23:23:31.830Z,15.45
2018-09-11T23:26:00.528Z,15.47
2018-09-11T23:28:29.280Z,15.49
2018-09-11T23:30:58.277Z,15.54
2018-09-11T23:33:27.981Z,15.56
2018-09-11T23:35:56.794Z,15.59
2018-09-11T23:38:26.173Z,15.62
2018-09-11T23:40:55.933Z,15.61
2018-09-11T23:43:24.659Z,15.64
2018-09-11T23:45:53.593Z,15.65
2018-09-11T23:48:22.395Z,15.54
2018-09-11T23:50:51.616Z,15.39
2018-09-11T23:53:20.967Z,15.30
2018-09-11T23:55:49.841Z,15.24
2018-09-11T23:58:20.041Z,15.16
